Time;durP1;ratioP1;P1;durP2;ratioP2;P2;SDS_P1;SDS_P2;PMS_P1;PMS_P2;Temp;Humidity;BMP_temperature;BMP_pressure;BME280_temperature;BME280_humidity;BME280_pressure;Samples;Min_cycle;Max_cycle;Signal;HPM_P1;HPM_P2
2023/03/22 00:00:23;;;;;;;10.10;5.80;;;;;;;;;;5091567;28;20643;-45
2023/03/22 00:02:50;;;;;;;6.20;4.97;;;;;;;;;;5083367;28;20488;-47
2023/03/22 00:05:16;;;;;;;8.17;5.20;;;;;;;;;;5093823;28;20744;-43
2023/03/22 00:07:43;;;;;;;9.43;5.37;;;;;;;;;;5078192;28;20425;-42
2023/03/22 00:10:09;;;;;;;9.87;5.63;;;;;;;;;;5084067;28;20425;-42
2023/03/22 00:12:35;;;;;;;8.57;5.80;;;;;;;;;;5095722;28;20433;-48
2023/03/22 00:15:01;;;;;;;5.80;5.20;;;;;;;;;;5091646;28;20818;-46
2023/03/22 00:17:27;;;;;;;6.10;5.10;;;;;;;;;;5096189;28;20894;-46
2023/03/22 00:19:53;;;;;;;8.57;5.40;;;;;;;;;;5096557;28;20400;-47
2023/03/22 00:22:20;;;;;;;11.27;5.97;;;;;;;;;;5095797;28;20416;-45
2023/03/22 00:24:46;;;;;;;5.90;5.23;;;;;;;;;;5088828;28;20413;-46
2023/03/22 00:27:12;;;;;;;6.90;5.60;;;;;;;;;;5087843;28;20509;-47
2023/03/22 00:29:38;;;;;;;6.93;5.47;;;;;;;;;;5094609;28;20411;-46
2023/03/22 00:32:04;;;;;;;5.27;4.80;;;;;;;;;;5097604;28;20412;-46
2023/03/22 00:34:31;;;;;;;8.00;5.90;;;;;;;;;;5089847;28;20800;-46
2023/03/22 00:36:57;;;;;;;8.00;5.87;;;;;;;;;;5098498;28;20463;-47
2023/03/22 00:39:23;;;;;;;6.17;5.37;;;;;;;;;;5096890;28;20404;-47
2023/03/22 00:41:50;;;;;;;7.03;5.57;;;;;;;;;;5101698;28;20436;-47
2023/03/22 00:44:16;;;;;;;8.00;5.50;;;;;;;;;;5101326;28;20467;-47
2023/03/22 00:46:42;;;;;;;8.93;5.33;;;;;;;;;;5099356;28;21016;-47
2023/03/22 00:49:08;;;;;;;6.03;5.00;;;;;;;;;;5102945;28;20457;-46
2023/03/22 00:51:34;;;;;;;7.70;5.57;;;;;;;;;;5101915;28;20418;-46
2023/03/22 00:54:00;;;;;;;7.67;6.27;;;;;;;;;;5100718;28;21019;-43
2023/03/22 00:56:27;;;;;;;7.70;6.50;;;;;;;;;;5098009;28;20542;-43
2023/03/22 00:58:53;;;;;;;7.20;5.83;;;;;;;;;;5094930;28;20412;-42
2023/03/22 01:01:19;;;;;;;7.83;5.17;;;;;;;;;;5097489;28;20408;-43
2023/03/22 01:03:48;;;;;;;8.87;5.37;;;;;;;;;;5089794;28;20445;-42
2023/03/22 01:06:14;;;;;;;8.83;6.10;;;;;;;;;;5097848;28;20895;-43
2023/03/22 01:08:40;;;;;;;14.20;6.20;;;;;;;;;;5097610;28;20415;-45
2023/03/22 01:11:07;;;;;;;6.70;5.50;;;;;;;;;;5097372;28;20699;-45
2023/03/22 01:13:33;;;;;;;6.77;5.80;;;;;;;;;;5097847;28;20417;-43
2023/03/22 01:15:59;;;;;;;10.77;5.97;;;;;;;;;;5097830;28;20423;-43
2023/03/22 01:18:25;;;;;;;6.77;5.67;;;;;;;;;;5097896;28;20463;-43
2023/03/22 01:20:51;;;;;;;7.30;6.47;;;;;;;;;;5097250;28;20406;-43
2023/03/22 01:23:17;;;;;;;7.07;6.37;;;;;;;;;;5097874;28;20428;-44
2023/03/22 01:25:43;;;;;;;10.77;6.10;;;;;;;;;;5097898;28;20891;-43
2023/03/22 01:28:09;;;;;;;9.37;6.63;;;;;;;;;;5097967;28;20502;-43
2023/03/22 01:30:35;;;;;;;9.73;6.67;;;;;;;;;;5097048;28;20825;-43
2023/03/22 01:33:01;;;;;;;8.27;7.47;;;;;;;;;;5098103;28;20907;-43
2023/03/22 01:35:27;;;;;;;8.53;6.50;;;;;;;;;;5094178;28;20431;-43
2023/03/22 01:37:53;;;;;;;7.20;6.30;;;;;;;;;;5097365;28;20503;-42
2023/03/22 01:40:19;;;;;;;8.47;7.50;;;;;;;;;;5097092;28;20408;-43
2023/03/22 01:42:45;;;;;;;10.60;7.63;;;;;;;;;;5094980;28;20431;-43
2023/03/22 01:45:15;;;;;;;9.50;7.00;;;;;;;;;;5089907;28;20407;-46
2023/03/22 01:47:49;;;;;;;9.10;6.80;;;;;;;;;;5098777;28;20415;-45
2023/03/22 01:50:16;;;;;;;9.33;6.87;;;;;;;;;;5086820;28;20412;-43
2023/03/22 01:52:42;;;;;;;8.73;7.00;;;;;;;;;;5094255;28;20424;-43
2023/03/22 01:55:08;;;;;;;8.37;7.03;;;;;;;;;;5094212;28;20403;-44
2023/03/22 01:57:36;;;;;;;8.57;7.20;;;;;;;;;;5094320;28;20466;-43
2023/03/22 02:00:07;;;;;;;10.70;8.43;;;;;;;;;;5093917;28;20420;-45
2023/03/22 02:02:33;;;;;;;9.40;7.70;;;;;;;;;;5092573;28;20990;-43
2023/03/22 02:05:00;;;;;;;9.27;7.10;;;;;;;;;;5092092;28;20923;-45
2023/03/22 02:07:26;;;;;;;15.13;7.70;;;;;;;;;;5092368;28;20440;-45
2023/03/22 02:09:53;;;;;;;10.63;7.20;;;;;;;;;;5093900;28;20451;-45
2023/03/22 02:12:19;;;;;;;12.13;6.90;;;;;;;;;;5097897;28;20406;-45
2023/03/22 02:14:50;;;;;;;10.83;7.83;;;;;;;;;;5098175;28;20472;-46
2023/03/22 02:17:27;;;;;;;10.67;7.50;;;;;;;;;;5098117;28;20502;-46
2023/03/22 02:20:07;;;;;;;9.93;6.97;;;;;;;;;;5098033;28;20415;-47
2023/03/22 02:22:38;;;;;;;12.40;7.90;;;;;;;;;;5092793;28;20503;-47
2023/03/22 02:25:04;;;;;;;10.07;6.17;;;;;;;;;;5094185;28;20400;-47
2023/03/22 02:27:30;;;;;;;13.13;7.83;;;;;;;;;;5092996;28;20415;-47
2023/03/22 02:30:00;;;;;;;8.67;7.17;;;;;;;;;;5098256;28;20836;-45
2023/03/22 02:32:47;;;;;;;16.63;7.50;;;;;;;;;;5096233;28;20408;-43
2023/03/22 02:35:13;;;;;;;17.93;7.30;;;;;;;;;;5088031;28;20428;-45
2023/03/22 02:37:39;;;;;;;9.30;7.10;;;;;;;;;;5093326;28;20831;-44
2023/03/22 02:40:14;;;;;;;12.23;8.10;;;;;;;;;;5093156;28;20912;-45
2023/03/22 02:42:58;;;;;;;7.83;7.03;;;;;;;;;;5089448;28;20514;-43
2023/03/22 02:45:45;;;;;;;12.93;8.00;;;;;;;;;;5087329;28;20402;-43
2023/03/22 02:48:20;;;;;;;8.77;7.00;;;;;;;;;;5085490;28;20922;-43
2023/03/22 02:50:46;;;;;;;8.97;7.27;;;;;;;;;;5091081;28;20411;-44
2023/03/22 02:53:16;;;;;;;8.90;7.17;;;;;;;;;;5093402;28;20756;-43
2023/03/22 02:55:47;;;;;;;14.90;6.90;;;;;;;;;;5093228;28;20492;-43
2023/03/22 03:01:20;;;;;;;11.20;7.10;;;;;;;;;;5085244;28;20457;-44
2023/03/22 03:03:48;;;;;;;11.00;7.90;;;;;;;;;;5092911;28;20455;-46
2023/03/22 03:06:18;;;;;;;17.90;8.20;;;;;;;;;;5096573;28;20795;-47
2023/03/22 03:08:46;;;;;;;10.43;7.73;;;;;;;;;;5096968;28;20447;-47
2023/03/22 03:11:12;;;;;;;13.83;8.50;;;;;;;;;;5092873;28;20872;-47
2023/03/22 03:13:38;;;;;;;9.20;7.73;;;;;;;;;;5096747;28;20427;-46
2023/03/22 03:16:06;;;;;;;11.00;8.20;;;;;;;;;;5097258;28;20420;-47
2023/03/22 03:18:55;;;;;;;12.80;8.23;;;;;;;;;;5094473;28;20419;-46
2023/03/22 03:21:28;;;;;;;12.17;7.60;;;;;;;;;;5090605;28;20402;-44
2023/03/22 03:24:04;;;;;;;8.40;7.10;;;;;;;;;;5092329;28;20931;-43
2023/03/22 03:26:49;;;;;;;13.83;8.07;;;;;;;;;;5093160;28;20399;-44
2023/03/22 03:29:21;;;;;;;13.23;8.50;;;;;;;;;;5083553;28;20470;-45
2023/03/22 03:32:07;;;;;;;10.60;8.47;;;;;;;;;;5090377;28;20419;-45
2023/03/22 03:34:33;;;;;;;10.87;8.87;;;;;;;;;;5092006;28;20780;-45
2023/03/22 03:37:07;;;;;;;13.20;8.70;;;;;;;;;;5092481;28;20468;-44
2023/03/22 03:39:37;;;;;;;9.00;7.87;;;;;;;;;;5085248;28;20434;-45
2023/03/22 03:42:04;;;;;;;13.97;7.93;;;;;;;;;;5089059;28;20415;-45
2023/03/22 03:44:31;;;;;;;9.70;7.70;;;;;;;;;;5087438;28;20422;-45
2023/03/22 03:46:57;;;;;;;12.60;8.10;;;;;;;;;;5090869;28;20469;-45
2023/03/22 03:49:23;;;;;;;12.60;8.00;;;;;;;;;;5092086;28;20906;-44
2023/03/22 03:51:53;;;;;;;15.90;8.70;;;;;;;;;;5091538;28;20619;-44
2023/03/22 03:54:19;;;;;;;17.37;7.87;;;;;;;;;;5091923;28;20438;-45
2023/03/22 03:56:49;;;;;;;12.13;8.47;;;;;;;;;;5092049;28;20455;-44
2023/03/22 03:59:15;;;;;;;10.80;7.07;;;;;;;;;;5090654;28;20419;-45
2023/03/22 04:01:48;;;;;;;8.40;7.27;;;;;;;;;;5091389;28;20426;-44
2023/03/22 04:04:15;;;;;;;10.53;8.30;;;;;;;;;;5089531;28;20451;-45
2023/03/22 04:06:41;;;;;;;13.13;8.40;;;;;;;;;;5090775;28;20430;-45
2023/03/22 04:09:07;;;;;;;8.90;7.03;;;;;;;;;;5085446;28;20407;-45
2023/03/22 04:11:33;;;;;;;11.87;7.67;;;;;;;;;;5091814;28;20410;-44
2023/03/22 04:13:59;;;;;;;9.77;8.10;;;;;;;;;;5090222;28;20441;-45
2023/03/22 04:16:25;;;;;;;12.43;8.00;;;;;;;;;;5091623;28;20428;-45
2023/03/22 04:18:52;;;;;;;18.73;6.93;;;;;;;;;;5091769;28;20851;-45
2023/03/22 04:21:18;;;;;;;15.63;7.57;;;;;;;;;;5091192;28;20410;-45
2023/03/22 04:23:45;;;;;;;8.40;6.77;;;;;;;;;;5091508;28;20420;-45
2023/03/22 04:26:11;;;;;;;9.40;6.73;;;;;;;;;;5084033;28;20408;-45
2023/03/22 04:28:37;;;;;;;9.40;7.90;;;;;;;;;;5090455;28;20412;-44
2023/03/22 04:31:03;;;;;;;10.87;7.03;;;;;;;;;;5090992;28;20502;-45
2023/03/22 04:33:31;;;;;;;10.43;7.20;;;;;;;;;;5091440;28;20431;-44
2023/03/22 04:35:57;;;;;;;10.00;7.13;;;;;;;;;;5083947;28;20429;-45
2023/03/22 04:38:24;;;;;;;9.47;6.67;;;;;;;;;;5091541;28;20454;-45
2023/03/22 04:40:50;;;;;;;12.90;7.00;;;;;;;;;;5089689;28;20410;-45
2023/03/22 04:43:17;;;;;;;12.73;7.53;;;;;;;;;;5091221;28;20417;-45
2023/03/22 04:45:45;;;;;;;11.57;7.73;;;;;;;;;;5088617;28;20407;-45
2023/03/22 04:48:11;;;;;;;11.43;7.10;;;;;;;;;;5091519;28;20418;-44
2023/03/22 04:50:38;;;;;;;14.07;7.03;;;;;;;;;;5091000;28;20424;-45
2023/03/22 04:53:04;;;;;;;13.90;7.90;;;;;;;;;;5091412;28;20524;-45
2023/03/22 04:55:30;;;;;;;1.10;1.00;;;;;;;;;;5090384;28;20824;-45
2023/03/22 04:57:56;;;;;;;16.57;7.33;;;;;;;;;;5091248;28;20484;-45
2023/03/22 05:00:22;;;;;;;10.67;7.80;;;;;;;;;;5090761;28;20867;-45
2023/03/22 05:02:48;;;;;;;9.93;7.20;;;;;;;;;;5091424;28;20457;-45
2023/03/22 05:05:14;;;;;;;16.57;6.53;;;;;;;;;;5088759;28;20473;-45
2023/03/22 05:07:40;;;;;;;8.67;6.67;;;;;;;;;;5090363;28;20794;-45
2023/03/22 05:10:07;;;;;;;9.00;6.50;;;;;;;;;;5089551;28;20399;-45
2023/03/22 05:12:33;;;;;;;10.33;6.30;;;;;;;;;;5091152;28;20876;-45
2023/03/22 05:14:59;;;;;;;15.90;6.73;;;;;;;;;;5090855;28;20522;-45
2023/03/22 05:17:26;;;;;;;8.00;6.73;;;;;;;;;;5091454;28;20988;-44
2023/03/22 05:19:51;;;;;;;7.40;6.60;;;;;;;;;;5094983;28;20407;-45
2023/03/22 05:22:21;;;;;;;9.90;5.93;;;;;;;;;;5094773;28;20407;-44
2023/03/22 05:24:47;;;;;;;10.40;6.83;;;;;;;;;;5093733;28;20418;-45
2023/03/22 05:27:13;;;;;;;8.67;6.70;;;;;;;;;;5094868;28;20563;-44
2023/03/22 05:29:43;;;;;;;8.93;6.43;;;;;;;;;;5094948;28;20930;-45
2023/03/22 05:32:10;;;;;;;12.33;7.20;;;;;;;;;;5086101;28;20411;-45
2023/03/22 05:34:36;;;;;;;11.73;6.63;;;;;;;;;;5092870;28;20790;-46
2023/03/22 05:37:02;;;;;;;13.73;6.97;;;;;;;;;;5093691;28;20562;-45
2023/03/22 05:39:28;;;;;;;7.93;6.43;;;;;;;;;;5094710;28;20404;-45
2023/03/22 05:41:54;;;;;;;15.80;7.33;;;;;;;;;;5093885;28;20411;-45
2023/03/22 05:44:20;;;;;;;8.23;5.87;;;;;;;;;;5090051;28;20426;-45
2023/03/22 05:46:46;;;;;;;7.10;6.37;;;;;;;;;;5094603;28;20451;-45
2023/03/22 05:49:12;;;;;;;10.60;6.30;;;;;;;;;;5094514;28;20412;-44
2023/03/22 05:51:40;;;;;;;12.70;7.00;;;;;;;;;;5092984;28;20415;-45
2023/03/22 05:54:07;;;;;;;6.03;5.43;;;;;;;;;;5094103;28;20428;-45
2023/03/22 05:56:34;;;;;;;11.60;6.30;;;;;;;;;;5094262;28;20959;-45
2023/03/22 05:59:00;;;;;;;7.50;6.10;;;;;;;;;;5094318;28;20425;-45
2023/03/22 06:01:26;;;;;;;6.47;5.60;;;;;;;;;;5088114;28;20465;-45
2023/03/22 06:03:52;;;;;;;11.20;7.27;;;;;;;;;;5093928;28;20518;-45
2023/03/22 06:06:18;;;;;;;10.87;6.80;;;;;;;;;;5086333;28;20514;-45
2023/03/22 06:08:44;;;;;;;7.87;6.17;;;;;;;;;;5090736;28;20441;-45
2023/03/22 06:11:10;;;;;;;8.00;6.10;;;;;;;;;;5093462;28;20408;-45
2023/03/22 06:13:36;;;;;;;11.57;6.13;;;;;;;;;;5093819;28;20427;-44
2023/03/22 06:16:03;;;;;;;9.93;5.90;;;;;;;;;;5093908;28;20422;-45
2023/03/22 06:18:30;;;;;;;8.10;5.03;;;;;;;;;;5093910;28;20473;-45
2023/03/22 06:20:56;;;;;;;11.00;5.63;;;;;;;;;;5092036;28;20783;-45
2023/03/22 06:23:22;;;;;;;9.93;5.57;;;;;;;;;;5093618;28;20431;-45
2023/03/22 06:25:48;;;;;;;8.27;5.37;;;;;;;;;;5093753;28;20422;-45
2023/03/22 06:28:14;;;;;;;8.03;4.93;;;;;;;;;;5082088;28;20967;-45
2023/03/22 06:30:40;;;;;;;8.93;5.07;;;;;;;;;;5081220;28;20426;-45
2023/03/22 06:33:06;;;;;;;10.30;5.27;;;;;;;;;;5091845;28;20435;-45
2023/03/22 06:35:32;;;;;;;7.93;5.90;;;;;;;;;;5091420;28;20427;-45
2023/03/22 06:37:59;;;;;;;8.80;4.97;;;;;;;;;;5093628;28;20459;-45
2023/03/22 06:40:25;;;;;;;11.77;4.97;;;;;;;;;;5074625;28;20416;-45
2023/03/22 06:42:53;;;;;;;10.17;5.77;;;;;;;;;;5085930;28;20467;-45
2023/03/22 06:45:19;;;;;;;5.50;4.97;;;;;;;;;;5095072;28;20421;-44
2023/03/22 06:47:45;;;;;;;9.73;5.40;;;;;;;;;;5093832;28;20430;-44
2023/03/22 06:50:11;;;;;;;7.93;5.10;;;;;;;;;;5091695;28;20781;-44
2023/03/22 06:52:37;;;;;;;10.20;4.50;;;;;;;;;;5089918;28;20528;-45
2023/03/22 06:55:03;;;;;;;8.50;5.00;;;;;;;;;;5092705;28;20447;-44
2023/03/22 06:57:30;;;;;;;4.93;4.23;;;;;;;;;;5093438;28;20455;-44
2023/03/22 06:59:55;;;;;;;6.43;5.83;;;;;;;;;;5096195;28;20419;-46
2023/03/22 07:02:21;;;;;;;7.33;4.80;;;;;;;;;;5092397;28;20410;-43
2023/03/22 07:04:47;;;;;;;6.53;3.97;;;;;;;;;;5090782;28;20467;-43
2023/03/22 07:07:14;;;;;;;6.23;4.07;;;;;;;;;;5092122;28;20423;-43
2023/03/22 07:09:40;;;;;;;11.63;5.27;;;;;;;;;;5094252;28;20414;-46
2023/03/22 07:12:06;;;;;;;16.13;5.07;;;;;;;;;;5097853;28;20462;-48
2023/03/22 07:14:32;;;;;;;10.83;4.40;;;;;;;;;;5097431;28;20424;-48
2023/03/22 07:16:58;;;;;;;9.80;4.17;;;;;;;;;;5097035;28;20539;-48
2023/03/22 07:19:24;;;;;;;5.80;4.13;;;;;;;;;;5095203;28;20437;-47
2023/03/22 07:21:50;;;;;;;4.53;3.67;;;;;;;;;;5094312;28;20426;-46
2023/03/22 07:24:16;;;;;;;6.30;4.53;;;;;;;;;;5097230;28;20425;-46
2023/03/22 07:26:42;;;;;;;8.03;4.13;;;;;;;;;;5093032;28;20421;-43
2023/03/22 07:29:08;;;;;;;5.20;4.17;;;;;;;;;;5092176;28;20469;-43
2023/03/22 07:31:35;;;;;;;5.30;3.70;;;;;;;;;;5091815;28;20415;-43
2023/03/22 07:34:01;;;;;;;4.33;3.90;;;;;;;;;;5092258;28;20430;-43
2023/03/22 07:36:27;;;;;;;5.53;3.00;;;;;;;;;;5092649;28;20767;-43
2023/03/22 07:38:53;;;;;;;7.53;3.73;;;;;;;;;;5092322;28;20505;-43
2023/03/22 07:41:19;;;;;;;3.97;3.50;;;;;;;;;;5077338;28;20957;-43
2023/03/22 07:43:45;;;;;;;4.30;3.20;;;;;;;;;;5086520;28;20513;-44
2023/03/22 07:46:11;;;;;;;6.27;2.77;;;;;;;;;;5089266;28;20396;-45
2023/03/22 07:48:38;;;;;;;5.30;2.90;;;;;;;;;;5091979;28;20465;-44
2023/03/22 07:51:04;;;;;;;5.97;2.70;;;;;;;;;;5089842;28;20499;-45
2023/03/22 07:53:30;;;;;;;6.00;2.87;;;;;;;;;;5091857;28;20418;-45
2023/03/22 07:55:56;;;;;;;8.50;3.50;;;;;;;;;;5092368;28;20413;-45
2023/03/22 07:58:22;;;;;;;8.67;3.37;;;;;;;;;;5091604;28;20460;-43
2023/03/22 08:00:48;;;;;;;3.87;2.60;;;;;;;;;;5090661;28;20410;-43
2023/03/22 08:03:14;;;;;;;3.50;2.57;;;;;;;;;;5087555;28;20430;-44
2023/03/22 08:05:41;;;;;;;4.03;2.80;;;;;;;;;;5085945;28;20492;-45
2023/03/22 08:08:07;;;;;;;7.67;2.70;;;;;;;;;;5084532;28;20917;-44
2023/03/22 08:10:33;;;;;;;3.57;2.80;;;;;;;;;;5088363;28;20410;-43
2023/03/22 08:13:00;;;;;;;6.60;2.40;;;;;;;;;;5091943;28;20406;-43
2023/03/22 08:15:26;;;;;;;4.23;2.70;;;;;;;;;;5091604;28;20410;-43
2023/03/22 08:17:52;;;;;;;3.13;2.50;;;;;;;;;;5087857;28;20970;-43
2023/03/22 08:20:18;;;;;;;4.40;2.70;;;;;;;;;;5091139;28;20390;-43
2023/03/22 08:22:44;;;;;;;6.43;2.70;;;;;;;;;;5092177;28;20441;-42
2023/03/22 08:25:11;;;;;;;4.00;2.17;;;;;;;;;;5092318;28;20404;-44
2023/03/22 08:27:40;;;;;;;3.87;2.27;;;;;;;;;;5092532;28;20500;-43
2023/03/22 08:30:07;;;;;;;2.77;2.27;;;;;;;;;;5093264;28;20494;-43
2023/03/22 08:32:33;;;;;;;6.50;2.30;;;;;;;;;;5088205;28;20436;-43
2023/03/22 08:34:59;;;;;;;3.40;2.30;;;;;;;;;;5095308;28;20418;-47
2023/03/22 08:37:25;;;;;;;5.93;2.37;;;;;;;;;;5080398;28;20554;-44
2023/03/22 08:39:51;;;;;;;7.23;2.43;;;;;;;;;;5093432;28;20504;-43
2023/03/22 08:42:17;;;;;;;5.27;2.50;;;;;;;;;;5091708;28;20404;-43
2023/03/22 08:44:44;;;;;;;9.30;2.60;;;;;;;;;;5092480;28;20439;-43
2023/03/22 08:47:10;;;;;;;4.70;2.30;;;;;;;;;;5094476;28;20927;-48
2023/03/22 08:49:36;;;;;;;2.40;2.17;;;;;;;;;;5095872;28;20483;-46
2023/03/22 08:52:06;;;;;;;7.73;2.80;;;;;;;;;;5094861;28;20423;-45
2023/03/22 08:54:32;;;;;;;3.03;2.27;;;;;;;;;;5095431;28;20802;-44
2023/03/22 08:56:59;;;;;;;3.27;2.27;;;;;;;;;;5097287;28;20839;-43
2023/03/22 08:59:26;;;;;;;6.50;3.20;;;;;;;;;;5097151;28;20404;-46
2023/03/22 09:01:52;;;;;;;6.97;2.60;;;;;;;;;;5096186;28;20411;-42
2023/03/22 09:04:18;;;;;;;4.07;2.57;;;;;;;;;;5097610;28;20442;-43
2023/03/22 09:06:45;;;;;;;2.77;2.50;;;;;;;;;;5094332;28;20425;-45
2023/03/22 09:09:12;;;;;;;6.07;2.90;;;;;;;;;;5098802;28;20405;-45
2023/03/22 09:11:40;;;;;;;7.10;2.67;;;;;;;;;;5097964;28;20411;-45
2023/03/22 09:14:06;;;;;;;5.00;2.47;;;;;;;;;;5099118;28;20461;-45
2023/03/22 09:16:32;;;;;;;3.80;3.17;;;;;;;;;;5097017;28;20428;-44
2023/03/22 09:18:58;;;;;;;7.60;3.80;;;;;;;;;;5094981;28;20401;-43
2023/03/22 09:21:25;;;;;;;4.77;2.93;;;;;;;;;;5096926;28;20425;-45
2023/03/22 09:23:51;;;;;;;7.27;2.73;;;;;;;;;;5097600;28;20562;-42
2023/03/22 09:26:17;;;;;;;3.17;2.50;;;;;;;;;;5095895;28;20423;-45
2023/03/22 09:28:45;;;;;;;9.80;2.93;;;;;;;;;;5095440;28;20952;-46
2023/03/22 09:31:11;;;;;;;4.73;3.13;;;;;;;;;;5089852;28;20421;-44
2023/03/22 09:33:39;;;;;;;6.50;3.17;;;;;;;;;;5093452;28;20913;-44
2023/03/22 09:36:06;;;;;;;8.40;2.37;;;;;;;;;;5094051;28;20390;-44
2023/03/22 09:41:12;;;;;;;8.80;4.20;;;;;;;;;;5509713;23;20540;-44
2023/03/22 09:43:41;;;;;;;3.03;2.73;;;;;;;;;;4991786;28;20405;-43
2023/03/22 09:46:11;;;;;;;5.50;2.93;;;;;;;;;;4993987;28;20436;-44
2023/03/22 09:48:38;;;;;;;5.00;3.07;;;;;;;;;;4984910;28;20948;-45
2023/03/22 09:51:06;;;;;;;8.70;3.23;;;;;;;;;;5000476;28;20405;-44
2023/03/22 09:53:33;;;;;;;5.30;4.80;;;;;;;;;;5001817;28;20426;-44
2023/03/22 09:56:06;;;;;;;10.93;10.13;;;;;;;;;;5008307;28;20383;-44
2023/03/22 09:58:37;;;;;;;26.20;24.00;;;;;;;;;;5003677;28;20462;-45
2023/03/22 10:01:14;;;;;;;11.77;10.93;;;;;;;;;;4995627;28;20950;-46
2023/03/22 10:03:43;;;;;;;20.60;19.07;;;;;;;;;;4993803;28;20404;-45
2023/03/22 10:06:18;;;;;;;7.33;6.77;;;;;;;;;;4994822;28;20931;-45
2023/03/22 10:08:48;;;;;;;3.80;2.83;;;;;;;;;;4994817;28;20391;-45
2023/03/22 10:11:22;;;;;;;2.07;1.93;;;;;;;;;;4994415;28;20404;-45
2023/03/22 10:14:01;;;;;;;3.00;2.50;;;;;;;;;;4994539;28;20857;-45
2023/03/22 10:16:30;;;;;;;4.80;2.20;;;;;;;;;;4994325;28;20746;-44
2023/03/22 10:19:00;;;;;;;3.20;2.10;;;;;;;;;;4992622;28;20455;-43
2023/03/22 10:21:26;;;;;;;2.60;1.67;;;;;;;;;;4995587;28;20419;-43
2023/03/22 10:24:00;;;;;;;5.00;1.60;;;;;;;;;;5004803;28;20435;-43
2023/03/22 10:26:37;;;;;;;2.40;1.90;;;;;;;;;;5004990;28;20417;-43
2023/03/22 10:29:06;;;;;;;5.83;2.60;;;;;;;;;;5005370;28;20466;-43
2023/03/22 10:31:33;;;;;;;2.40;2.00;;;;;;;;;;5001131;28;20410;-44
2023/03/22 10:34:05;;;;;;;3.40;2.23;;;;;;;;;;5002815;28;20375;-43
2023/03/22 10:36:33;;;;;;;2.33;2.07;;;;;;;;;;5002828;28;20400;-42
2023/03/22 10:39:05;;;;;;;5.60;4.03;;;;;;;;;;5002273;28;20370;-43
2023/03/22 10:41:32;;;;;;;4.07;2.27;;;;;;;;;;5003342;28;20522;-43
2023/03/22 10:44:00;;;;;;;4.00;2.97;;;;;;;;;;5005543;28;20406;-43
2023/03/22 10:46:28;;;;;;;8.47;5.93;;;;;;;;;;5004536;28;20412;-42
2023/03/22 10:48:57;;;;;;;2.50;1.80;;;;;;;;;;4999157;28;20479;-43
2023/03/22 10:51:29;;;;;;;5.23;2.20;;;;;;;;;;4997471;28;20429;-43
2023/03/22 10:53:57;;;;;;;5.43;2.10;;;;;;;;;;5005296;28;20479;-43
2023/03/22 10:56:23;;;;;;;4.63;2.00;;;;;;;;;;5002666;28;20440;-43
2023/03/22 10:58:50;;;;;;;3.10;2.33;;;;;;;;;;5005364;28;20537;-43
2023/03/22 11:01:26;;;;;;;5.20;2.50;;;;;;;;;;4997576;28;20476;-44
2023/03/22 11:03:55;;;;;;;7.03;2.93;;;;;;;;;;5000360;28;20435;-43
2023/03/22 11:06:26;;;;;;;5.30;2.60;;;;;;;;;;5002433;28;20383;-42
2023/03/22 11:09:11;;;;;;;5.43;4.80;;;;;;;;;;5001647;28;20386;-43
2023/03/22 11:11:54;;;;;;;16.77;15.63;;;;;;;;;;5006927;28;20462;-44
2023/03/22 11:14:23;;;;;;;11.80;8.40;;;;;;;;;;5005258;28;20888;-46
2023/03/22 11:16:53;;;;;;;8.80;7.10;;;;;;;;;;4998254;28;20472;-44
2023/03/22 11:19:25;;;;;;;17.33;14.83;;;;;;;;;;4996554;28;20809;-42
2023/03/22 11:21:51;;;;;;;8.53;3.10;;;;;;;;;;4997322;28;20422;-43
2023/03/22 11:24:18;;;;;;;7.40;3.90;;;;;;;;;;5002595;28;20367;-43
2023/03/22 11:27:00;;;;;;;9.63;8.73;;;;;;;;;;5004476;28;20401;-42
2023/03/22 11:29:26;;;;;;;6.27;5.63;;;;;;;;;;4999701;28;20735;-43
2023/03/22 11:31:59;;;;;;;7.27;3.17;;;;;;;;;;5002459;28;20426;-44
2023/03/22 11:34:27;;;;;;;5.37;3.37;;;;;;;;;;5001900;28;20467;-44
2023/03/22 11:36:55;;;;;;;14.03;9.10;;;;;;;;;;5001242;28;20469;-44
2023/03/22 11:39:23;;;;;;;3.40;1.33;;;;;;;;;;5006789;28;20435;-45
2023/03/22 11:41:49;;;;;;;24.20;22.40;;;;;;;;;;5000709;28;20415;-43
2023/03/22 11:44:20;;;;;;;3.43;2.03;;;;;;;;;;4999482;28;20416;-42
2023/03/22 11:46:58;;;;;;;7.40;2.20;;;;;;;;;;4990390;28;20416;-43
2023/03/22 11:49:26;;;;;;;11.23;3.07;;;;;;;;;;5001589;28;20401;-44
2023/03/22 11:51:53;;;;;;;7.53;3.90;;;;;;;;;;5003818;28;20421;-43
2023/03/22 11:54:19;;;;;;;5.23;2.60;;;;;;;;;;5001995;28;20462;-43
2023/03/22 11:56:47;;;;;;;20.63;13.23;;;;;;;;;;4997235;28;20409;-43
2023/03/22 11:59:15;;;;;;;8.73;2.90;;;;;;;;;;5002468;28;20815;-43
2023/03/22 12:02:10;;;;;;;5.20;2.47;;;;;;;;;;4996465;28;20462;-44
2023/03/22 12:04:38;;;;;;;4.43;3.03;;;;;;;;;;4997028;28;20430;-43
2023/03/22 12:07:10;;;;;;;21.43;19.43;;;;;;;;;;5004309;28;20419;-42
2023/03/22 12:09:42;;;;;;;9.40;8.53;;;;;;;;;;4999958;28;20895;-44
2023/03/22 12:12:17;;;;;;;38.63;34.20;;;;;;;;;;5000072;28;20412;-43
2023/03/22 12:14:50;;;;;;;2.27;1.63;;;;;;;;;;5001366;28;20384;-42
2023/03/22 12:17:36;;;;;;;6.73;2.10;;;;;;;;;;4999645;28;21017;-43
2023/03/22 12:20:11;;;;;;;1.67;1.57;;;;;;;;;;4994613;28;20426;-43
2023/03/22 12:22:40;;;;;;;3.23;1.80;;;;;;;;;;5001552;28;20443;-45
2023/03/22 12:25:11;;;;;;;3.20;1.40;;;;;;;;;;5001794;28;20483;-43
2023/03/22 12:27:38;;;;;;;4.37;1.67;;;;;;;;;;5002493;28;20417;-42
2023/03/22 12:30:07;;;;;;;5.87;1.90;;;;;;;;;;4998871;28;20427;-42
2023/03/22 12:32:56;;;;;;;2.23;2.03;;;;;;;;;;5001918;28;20926;-43
2023/03/22 12:35:25;;;;;;;2.93;1.60;;;;;;;;;;4986974;28;20426;-42
2023/03/22 12:37:53;;;;;;;3.00;1.77;;;;;;;;;;5000129;28;20815;-42
2023/03/22 12:40:23;;;;;;;5.40;1.70;;;;;;;;;;4997772;28;20432;-43
2023/03/22 12:42:54;;;;;;;7.53;2.40;;;;;;;;;;4992507;28;20894;-42
2023/03/22 12:45:22;;;;;;;4.53;1.40;;;;;;;;;;5000029;28;20405;-43
2023/03/22 12:47:51;;;;;;;5.20;2.00;;;;;;;;;;4994930;28;20472;-45
2023/03/22 12:50:25;;;;;;;2.10;1.70;;;;;;;;;;4997908;28;20439;-43
2023/03/22 12:52:53;;;;;;;3.40;1.63;;;;;;;;;;4994808;28;20433;-42
2023/03/22 12:55:26;;;;;;;4.60;1.70;;;;;;;;;;4997864;28;20420;-44
2023/03/22 12:57:53;;;;;;;2.10;1.90;;;;;;;;;;4990136;28;20973;-43
2023/03/22 13:00:20;;;;;;;4.03;2.30;;;;;;;;;;5002765;28;20430;-43
2023/03/22 13:02:49;;;;;;;2.20;2.00;;;;;;;;;;4993291;28;20420;-42
2023/03/22 13:05:17;;;;;;;3.83;1.70;;;;;;;;;;5000047;28;20762;-43
2023/03/22 13:07:46;;;;;;;4.60;1.77;;;;;;;;;;5002536;28;20416;-43
2023/03/22 13:10:35;;;;;;;3.40;2.23;;;;;;;;;;4997600;28;20460;-43
2023/03/22 13:13:21;;;;;;;4.07;2.03;;;;;;;;;;4993809;28;20417;-42
2023/03/22 13:16:12;;;;;;;2.37;2.03;;;;;;;;;;4994550;28;20415;-42
2023/03/22 13:18:41;;;;;;;3.10;2.10;;;;;;;;;;4996572;28;20500;-42
2023/03/22 13:21:28;;;;;;;1.87;1.73;;;;;;;;;;4990429;28;20449;-43
2023/03/22 13:24:18;;;;;;;2.80;1.90;;;;;;;;;;4996087;28;20427;-43
2023/03/22 13:26:46;;;;;;;4.90;2.30;;;;;;;;;;4999684;28;20414;-43
2023/03/22 13:29:25;;;;;;;5.03;2.00;;;;;;;;;;4996523;28;20533;-44
2023/03/22 13:31:51;;;;;;;7.60;2.77;;;;;;;;;;4996488;28;20480;-44
2023/03/22 13:34:22;;;;;;;3.73;2.50;;;;;;;;;;5002965;28;20407;-43
2023/03/22 13:36:49;;;;;;;10.20;2.87;;;;;;;;;;4989506;28;20418;-44
2023/03/22 13:39:16;;;;;;;3.70;3.20;;;;;;;;;;4997354;28;20402;-43
2023/03/22 13:41:45;;;;;;;3.03;2.33;;;;;;;;;;5004109;28;20520;-43
2023/03/22 13:44:20;;;;;;;3.27;2.67;;;;;;;;;;5007184;28;20775;-43
2023/03/22 13:46:49;;;;;;;2.83;2.20;;;;;;;;;;4999903;28;20479;-43
2023/03/22 13:49:25;;;;;;;3.93;2.17;;;;;;;;;;5002659;28;20403;-43
2023/03/22 13:51:52;;;;;;;3.97;2.23;;;;;;;;;;5000649;28;20441;-43
2023/03/22 13:54:22;;;;;;;3.43;3.07;;;;;;;;;;5000024;28;20394;-43
2023/03/22 13:56:59;;;;;;;4.77;2.60;;;;;;;;;;5003885;28;20418;-45
2023/03/22 13:59:32;;;;;;;4.43;2.63;;;;;;;;;;4998228;28;20952;-47
2023/03/22 14:02:09;;;;;;;10.37;3.57;;;;;;;;;;4999425;28;20461;-47
2023/03/22 14:04:41;;;;;;;5.37;2.50;;;;;;;;;;4999067;28;20402;-46
2023/03/22 14:07:25;;;;;;;2.50;2.30;;;;;;;;;;4997486;28;20459;-47
2023/03/22 14:09:55;;;;;;;5.43;3.40;;;;;;;;;;4997599;28;20435;-46
2023/03/22 14:12:40;;;;;;;5.80;2.57;;;;;;;;;;4996935;28;20407;-47
2023/03/22 14:15:06;;;;;;;8.83;3.73;;;;;;;;;;4995352;28;20486;-45
2023/03/22 14:17:41;;;;;;;4.17;3.57;;;;;;;;;;4994776;28;20982;-48
2023/03/22 14:20:10;;;;;;;4.87;2.90;;;;;;;;;;4994870;28;20440;-47
2023/03/22 14:22:39;;;;;;;6.57;2.67;;;;;;;;;;4998944;28;20467;-46
2023/03/22 14:25:06;;;;;;;4.57;2.33;;;;;;;;;;4997620;28;20451;-48
2023/03/22 14:27:33;;;;;;;4.50;3.37;;;;;;;;;;4999041;28;20446;-45
2023/03/22 14:29:59;;;;;;;6.27;3.50;;;;;;;;;;4998738;28;20386;-45
2023/03/22 14:32:29;;;;;;;4.93;4.10;;;;;;;;;;4999056;28;20439;-46
2023/03/22 14:35:09;;;;;;;2.97;2.33;;;;;;;;;;4998973;28;20419;-46
2023/03/22 14:37:36;;;;;;;5.53;2.87;;;;;;;;;;4997570;28;20471;-46
2023/03/22 14:40:12;;;;;;;6.10;5.37;;;;;;;;;;4997422;28;20809;-45
2023/03/22 14:42:38;;;;;;;5.70;3.03;;;;;;;;;;4997091;28;20502;-46
2023/03/22 14:45:15;;;;;;;5.47;2.37;;;;;;;;;;4997272;28;20946;-48
2023/03/22 14:47:42;;;;;;;2.63;2.40;;;;;;;;;;4997609;28;20829;-46
2023/03/22 14:50:13;;;;;;;5.13;1.80;;;;;;;;;;4996961;28;20434;-47
2023/03/22 14:52:39;;;;;;;5.53;3.30;;;;;;;;;;4997726;28;20427;-48